sensor_id;sensor_type;location;lat;lon;timestamp;temperature;humidity
45843;DHT22;31563;51.744;8.252;2024-03-02T00:01:23;17.80;51.50
45843;DHT22;31563;51.744;8.252;2024-03-02T00:03:52;17.80;51.80
45843;DHT22;31563;51.744;8.252;2024-03-02T00:06:20;17.80;51.60
45843;DHT22;31563;51.744;8.252;2024-03-02T00:08:51;17.70;51.70
45843;DHT22;31563;51.744;8.252;2024-03-02T00:11:19;17.70;51.80
45843;DHT22;31563;51.744;8.252;2024-03-02T00:13:47;17.70;51.70
45843;DHT22;31563;51.744;8.252;2024-03-02T00:16:15;17.70;51.80
45843;DHT22;31563;51.744;8.252;2024-03-02T00:18:45;17.70;51.90
45843;DHT22;31563;51.744;8.252;2024-03-02T00:21:13;17.60;51.80
45843;DHT22;31563;51.744;8.252;2024-03-02T00:23:43;17.70;51.80
45843;DHT22;31563;51.744;8.252;2024-03-02T00:26:13;17.70;51.80
45843;DHT22;31563;51.744;8.252;2024-03-02T00:28:42;17.70;51.80
45843;DHT22;31563;51.744;8.252;2024-03-02T00:31:12;17.60;51.80
45843;DHT22;31563;51.744;8.252;2024-03-02T00:33:42;17.60;51.70
45843;DHT22;31563;51.744;8.252;2024-03-02T00:36:12;17.60;51.80
45843;DHT22;31563;51.744;8.252;2024-03-02T00:38:43;17.60;51.70
45843;DHT22;31563;51.744;8.252;2024-03-02T00:41:20;17.60;51.70
45843;DHT22;31563;51.744;8.252;2024-03-02T00:43:58;17.50;51.70
45843;DHT22;31563;51.744;8.252;2024-03-02T00:46:28;17.50;51.70
45843;DHT22;31563;51.744;8.252;2024-03-02T00:48:59;17.50;51.80
45843;DHT22;31563;51.744;8.252;2024-03-02T00:51:29;17.60;51.70
45843;DHT22;31563;51.744;8.252;2024-03-02T00:53:59;17.50;51.70
45843;DHT22;31563;51.744;8.252;2024-03-02T00:56:29;17.60;51.70
45843;DHT22;31563;51.744;8.252;2024-03-02T00:58:57;17.60;51.70
45843;DHT22;31563;51.744;8.252;2024-03-02T01:01:26;17.50;51.60
45843;DHT22;31563;51.744;8.252;2024-03-02T01:03:55;17.50;51.50
45843;DHT22;31563;51.744;8.252;2024-03-02T01:06:23;17.50;51.80
45843;DHT22;31563;51.744;8.252;2024-03-02T01:08:51;17.40;51.70
45843;DHT22;31563;51.744;8.252;2024-03-02T01:11:20;17.40;51.80
45843;DHT22;31563;51.744;8.252;2024-03-02T01:13:51;17.40;51.70
45843;DHT22;31563;51.744;8.252;2024-03-02T01:16:19;17.40;51.70
45843;DHT22;31563;51.744;8.252;2024-03-02T01:18:48;17.40;51.80
45843;DHT22;31563;51.744;8.252;2024-03-02T01:21:16;17.40;51.90
45843;DHT22;31563;51.744;8.252;2024-03-02T01:23:44;17.30;51.80
45843;DHT22;31563;51.744;8.252;2024-03-02T01:26:13;17.40;51.80
45843;DHT22;31563;51.744;8.252;2024-03-02T01:28:41;17.30;51.90
45843;DHT22;31563;51.744;8.252;2024-03-02T01:31:10;17.30;51.90
45843;DHT22;31563;51.744;8.252;2024-03-02T01:33:38;17.30;51.80
45843;DHT22;31563;51.744;8.252;2024-03-02T01:36:06;17.30;51.80
45843;DHT22;31563;51.744;8.252;2024-03-02T01:38:35;17.30;51.90
45843;DHT22;31563;51.744;8.252;2024-03-02T01:41:03;17.30;51.80
45843;DHT22;31563;51.744;8.252;2024-03-02T01:43:32;17.30;51.80
45843;DHT22;31563;51.744;8.252;2024-03-02T01:46:00;17.30;51.90
45843;DHT22;31563;51.744;8.252;2024-03-02T01:48:29;17.30;52.00
45843;DHT22;31563;51.744;8.252;2024-03-02T01:50:58;17.30;52.00
45843;DHT22;31563;51.744;8.252;2024-03-02T01:53:26;17.30;52.00
45843;DHT22;31563;51.744;8.252;2024-03-02T01:55:55;17.30;52.10
45843;DHT22;31563;51.744;8.252;2024-03-02T01:58:23;17.30;52.00
45843;DHT22;31563;51.744;8.252;2024-03-02T02:00:52;17.30;52.00
45843;DHT22;31563;51.744;8.252;2024-03-02T02:03:20;17.30;51.90
45843;DHT22;31563;51.744;8.252;2024-03-02T02:05:50;17.30;52.00
45843;DHT22;31563;51.744;8.252;2024-03-02T02:08:19;17.30;52.00
45843;DHT22;31563;51.744;8.252;2024-03-02T02:10:47;17.30;52.00
45843;DHT22;31563;51.744;8.252;2024-03-02T02:13:15;17.20;51.90
45843;DHT22;31563;51.744;8.252;2024-03-02T02:15:43;17.20;52.00
45843;DHT22;31563;51.744;8.252;2024-03-02T02:18:12;17.20;52.00
45843;DHT22;31563;51.744;8.252;2024-03-02T02:20:40;17.20;52.10
45843;DHT22;31563;51.744;8.252;2024-03-02T02:23:09;17.20;52.70
45843;DHT22;31563;51.744;8.252;2024-03-02T02:25:37;17.10;52.00
45843;DHT22;31563;51.744;8.252;2024-03-02T02:28:05;17.10;52.20
45843;DHT22;31563;51.744;8.252;2024-03-02T02:30:33;17.10;52.10
45843;DHT22;31563;51.744;8.252;2024-03-02T02:33:02;17.10;52.10
45843;DHT22;31563;51.744;8.252;2024-03-02T02:35:30;17.00;52.20
45843;DHT22;31563;51.744;8.252;2024-03-02T02:37:59;17.00;52.10
45843;DHT22;31563;51.744;8.252;2024-03-02T02:40:28;17.00;52.20
45843;DHT22;31563;51.744;8.252;2024-03-02T02:42:57;17.00;52.20
45843;DHT22;31563;51.744;8.252;2024-03-02T02:45:25;17.00;52.30
45843;DHT22;31563;51.744;8.252;2024-03-02T02:47:54;17.00;52.30
45843;DHT22;31563;51.744;8.252;2024-03-02T02:50:22;17.00;52.30
45843;DHT22;31563;51.744;8.252;2024-03-02T02:52:50;17.00;51.70
45843;DHT22;31563;51.744;8.252;2024-03-02T02:55:18;17.00;51.70
45843;DHT22;31563;51.744;8.252;2024-03-02T02:57:47;17.10;52.80
45843;DHT22;31563;51.744;8.252;2024-03-02T03:00:16;17.10;53.90
45843;DHT22;31563;51.744;8.252;2024-03-02T03:02:47;17.00;54.00
45843;DHT22;31563;51.744;8.252;2024-03-02T03:05:18;17.00;54.20
45843;DHT22;31563;51.744;8.252;2024-03-02T03:07:46;17.00;54.20
45843;DHT22;31563;51.744;8.252;2024-03-02T03:10:16;17.00;54.10
45843;DHT22;31563;51.744;8.252;2024-03-02T03:12:49;17.00;54.10
45843;DHT22;31563;51.744;8.252;2024-03-02T03:15:17;17.00;54.00
45843;DHT22;31563;51.744;8.252;2024-03-02T03:17:45;17.00;54.00
45843;DHT22;31563;51.744;8.252;2024-03-02T03:20:14;17.00;54.00
45843;DHT22;31563;51.744;8.252;2024-03-02T03:22:43;16.90;53.90
45843;DHT22;31563;51.744;8.252;2024-03-02T03:25:11;16.90;54.00
45843;DHT22;31563;51.744;8.252;2024-03-02T03:27:39;16.90;54.60
45843;DHT22;31563;51.744;8.252;2024-03-02T03:30:10;16.90;54.00
45843;DHT22;31563;51.744;8.252;2024-03-02T03:32:39;16.90;54.10
45843;DHT22;31563;51.744;8.252;2024-03-02T03:35:07;16.80;54.00
45843;DHT22;31563;51.744;8.252;2024-03-02T03:37:35;16.80;54.00
45843;DHT22;31563;51.744;8.252;2024-03-02T03:40:05;16.80;54.00
45843;DHT22;31563;51.744;8.252;2024-03-02T03:42:37;16.80;54.10
45843;DHT22;31563;51.744;8.252;2024-03-02T03:45:06;16.70;54.00
45843;DHT22;31563;51.744;8.252;2024-03-02T03:47:35;16.70;54.00
45843;DHT22;31563;51.744;8.252;2024-03-02T03:50:05;16.70;54.10
45843;DHT22;31563;51.744;8.252;2024-03-02T03:52:34;16.80;54.00
45843;DHT22;31563;51.744;8.252;2024-03-02T03:55:03;16.80;53.90
45843;DHT22;31563;51.744;8.252;2024-03-02T03:57:32;16.80;53.90
45843;DHT22;31563;51.744;8.252;2024-03-02T04:00:00;16.80;53.80
45843;DHT22;31563;51.744;8.252;2024-03-02T04:02:28;16.80;53.80
45843;DHT22;31563;51.744;8.252;2024-03-02T04:04:57;16.80;53.90
45843;DHT22;31563;51.744;8.252;2024-03-02T04:07:25;16.80;53.90
45843;DHT22;31563;51.744;8.252;2024-03-02T04:09:53;16.80;53.90
45843;DHT22;31563;51.744;8.252;2024-03-02T04:12:21;16.80;53.80
45843;DHT22;31563;51.744;8.252;2024-03-02T04:14:50;16.80;53.70
45843;DHT22;31563;51.744;8.252;2024-03-02T04:17:18;16.80;53.70
45843;DHT22;31563;51.744;8.252;2024-03-02T04:19:46;16.80;53.70
45843;DHT22;31563;51.744;8.252;2024-03-02T04:22:16;16.80;53.70
45843;DHT22;31563;51.744;8.252;2024-03-02T04:24:51;16.80;53.70
45843;DHT22;31563;51.744;8.252;2024-03-02T04:27:19;16.80;53.70
45843;DHT22;31563;51.744;8.252;2024-03-02T04:29:47;16.70;53.70
45843;DHT22;31563;51.744;8.252;2024-03-02T04:32:15;16.70;53.80
45843;DHT22;31563;51.744;8.252;2024-03-02T04:34:44;16.70;53.80
45843;DHT22;31563;51.744;8.252;2024-03-02T04:37:12;16.60;53.90
45843;DHT22;31563;51.744;8.252;2024-03-02T04:39:42;16.60;53.90
45843;DHT22;31563;51.744;8.252;2024-03-02T04:42:10;16.60;53.90
45843;DHT22;31563;51.744;8.252;2024-03-02T04:44:39;16.60;54.60
45843;DHT22;31563;51.744;8.252;2024-03-02T04:47:07;16.50;54.00
45843;DHT22;31563;51.744;8.252;2024-03-02T04:49:35;16.50;54.10
45843;DHT22;31563;51.744;8.252;2024-03-02T04:52:03;16.60;54.10
45843;DHT22;31563;51.744;8.252;2024-03-02T04:54:31;16.60;53.90
45843;DHT22;31563;51.744;8.252;2024-03-02T04:57:03;16.70;53.90
45843;DHT22;31563;51.744;8.252;2024-03-02T04:59:31;16.70;53.70
45843;DHT22;31563;51.744;8.252;2024-03-02T05:01:59;16.80;53.60
45843;DHT22;31563;51.744;8.252;2024-03-02T05:04:27;16.80;53.50
45843;DHT22;31563;51.744;8.252;2024-03-02T05:06:56;16.90;53.40
45843;DHT22;31563;51.744;8.252;2024-03-02T05:09:24;16.90;53.30
45843;DHT22;31563;51.744;8.252;2024-03-02T05:11:53;16.90;53.20
45843;DHT22;31563;51.744;8.252;2024-03-02T05:14:45;17.00;53.20
45843;DHT22;31563;51.744;8.252;2024-03-02T05:17:14;17.00;53.10
45843;DHT22;31563;51.744;8.252;2024-03-02T05:19:42;17.00;53.00
45843;DHT22;31563;51.744;8.252;2024-03-02T05:22:10;17.00;53.00
45843;DHT22;31563;51.744;8.252;2024-03-02T05:24:38;17.00;52.90
45843;DHT22;31563;51.744;8.252;2024-03-02T05:27:06;17.10;52.90
45843;DHT22;31563;51.744;8.252;2024-03-02T05:29:34;17.00;52.90
45843;DHT22;31563;51.744;8.252;2024-03-02T05:32:03;17.10;52.10
45843;DHT22;31563;51.744;8.252;2024-03-02T05:34:31;17.10;52.10
45843;DHT22;31563;51.744;8.252;2024-03-02T05:37:02;17.00;51.30
45843;DHT22;31563;51.744;8.252;2024-03-02T05:39:30;16.90;50.70
45843;DHT22;31563;51.744;8.252;2024-03-02T05:41:58;16.90;50.40
45843;DHT22;31563;51.744;8.252;2024-03-02T05:44:26;16.80;50.70
45843;DHT22;31563;51.744;8.252;2024-03-02T05:46:54;16.80;53.40
45843;DHT22;31563;51.744;8.252;2024-03-02T05:49:24;17.00;52.20
45843;DHT22;31563;51.744;8.252;2024-03-02T05:51:52;17.30;52.40
45843;DHT22;31563;51.744;8.252;2024-03-02T05:54:20;17.40;52.40
45843;DHT22;31563;51.744;8.252;2024-03-02T05:56:48;17.60;53.30
45843;DHT22;31563;51.744;8.252;2024-03-02T05:59:19;17.70;52.80
45843;DHT22;31563;51.744;8.252;2024-03-02T06:01:47;17.70;51.10
45843;DHT22;31563;51.744;8.252;2024-03-02T06:04:17;17.40;49.70
45843;DHT22;31563;51.744;8.252;2024-03-02T06:06:47;17.40;52.60
45843;DHT22;31563;51.744;8.252;2024-03-02T06:09:16;17.50;51.50
45843;DHT22;31563;51.744;8.252;2024-03-02T06:11:46;17.50;51.30
45843;DHT22;31563;51.744;8.252;2024-03-02T06:14:14;17.40;52.10
45843;DHT22;31563;51.744;8.252;2024-03-02T06:16:42;17.40;52.30
45843;DHT22;31563;51.744;8.252;2024-03-02T06:19:10;17.30;52.40
45843;DHT22;31563;51.744;8.252;2024-03-02T06:21:38;17.30;52.50
45843;DHT22;31563;51.744;8.252;2024-03-02T06:24:08;17.30;52.60
45843;DHT22;31563;51.744;8.252;2024-03-02T06:26:36;17.30;53.30
45843;DHT22;31563;51.744;8.252;2024-03-02T06:29:04;17.30;52.70
45843;DHT22;31563;51.744;8.252;2024-03-02T06:31:32;17.30;52.70
45843;DHT22;31563;51.744;8.252;2024-03-02T06:34:01;17.30;52.60
45843;DHT22;31563;51.744;8.252;2024-03-02T06:36:31;17.30;52.60
45843;DHT22;31563;51.744;8.252;2024-03-02T06:38:58;17.40;52.70
45843;DHT22;31563;51.744;8.252;2024-03-02T06:41:28;17.40;52.70
45843;DHT22;31563;51.744;8.252;2024-03-02T06:43:57;17.40;52.70
45843;DHT22;31563;51.744;8.252;2024-03-02T06:46:27;17.40;52.70
45843;DHT22;31563;51.744;8.252;2024-03-02T06:48:56;17.40;52.70
45843;DHT22;31563;51.744;8.252;2024-03-02T06:51:25;17.40;52.70
45843;DHT22;31563;51.744;8.252;2024-03-02T06:53:53;17.50;52.70
45843;DHT22;31563;51.744;8.252;2024-03-02T06:56:22;17.50;52.60
45843;DHT22;31563;51.744;8.252;2024-03-02T06:58:51;17.50;52.60
45843;DHT22;31563;51.744;8.252;2024-03-02T07:01:20;17.50;52.70
45843;DHT22;31563;51.744;8.252;2024-03-02T07:03:51;17.50;53.30
45843;DHT22;31563;51.744;8.252;2024-03-02T07:06:19;17.50;52.60
45843;DHT22;31563;51.744;8.252;2024-03-02T07:08:47;17.50;52.70
45843;DHT22;31563;51.744;8.252;2024-03-02T07:11:15;17.50;52.70
45843;DHT22;31563;51.744;8.252;2024-03-02T07:13:44;17.60;52.70
45843;DHT22;31563;51.744;8.252;2024-03-02T07:16:13;17.60;52.50
45843;DHT22;31563;51.744;8.252;2024-03-02T07:18:55;17.70;52.50
45843;DHT22;31563;51.744;8.252;2024-03-02T07:21:24;17.60;50.60
45843;DHT22;31563;51.744;8.252;2024-03-02T07:23:52;17.70;51.40
45843;DHT22;31563;51.744;8.252;2024-03-02T07:26:20;17.80;51.20
45843;DHT22;31563;51.744;8.252;2024-03-02T07:28:53;17.90;51.10
45843;DHT22;31563;51.744;8.252;2024-03-02T07:31:22;18.00;50.90
45843;DHT22;31563;51.744;8.252;2024-03-02T07:33:50;18.10;50.70
45843;DHT22;31563;51.744;8.252;2024-03-02T07:36:19;18.10;50.60
45843;DHT22;31563;51.744;8.252;2024-03-02T07:38:47;18.20;50.60
45843;DHT22;31563;51.744;8.252;2024-03-02T07:41:17;18.30;50.30
45843;DHT22;31563;51.744;8.252;2024-03-02T07:43:45;18.50;50.00
45843;DHT22;31563;51.744;8.252;2024-03-02T07:46:13;18.70;49.80
45843;DHT22;31563;51.744;8.252;2024-03-02T07:48:43;18.80;49.40
45843;DHT22;31563;51.744;8.252;2024-03-02T07:51:11;19.00;49.10
45843;DHT22;31563;51.744;8.252;2024-03-02T07:53:40;19.00;47.70
45843;DHT22;31563;51.744;8.252;2024-03-02T07:56:09;19.50;48.30
45843;DHT22;31563;51.744;8.252;2024-03-02T07:58:37;19.80;49.00
45843;DHT22;31563;51.744;8.252;2024-03-02T08:01:05;20.00;49.40
45843;DHT22;31563;51.744;8.252;2024-03-02T08:03:33;20.10;49.60
45843;DHT22;31563;51.744;8.252;2024-03-02T08:06:04;20.20;49.70
45843;DHT22;31563;51.744;8.252;2024-03-02T08:08:32;20.10;50.20
45843;DHT22;31563;51.744;8.252;2024-03-02T08:11:00;20.00;51.60
45843;DHT22;31563;51.744;8.252;2024-03-02T08:13:28;20.10;51.40
45843;DHT22;31563;51.744;8.252;2024-03-02T08:15:56;20.20;51.20
45843;DHT22;31563;51.744;8.252;2024-03-02T08:18:24;20.20;51.10
45843;DHT22;31563;51.744;8.252;2024-03-02T08:20:52;20.40;51.10
45843;DHT22;31563;51.744;8.252;2024-03-02T08:23:22;20.60;50.80
45843;DHT22;31563;51.744;8.252;2024-03-02T08:25:50;20.70;50.80
45843;DHT22;31563;51.744;8.252;2024-03-02T08:28:18;21.00;50.50
45843;DHT22;31563;51.744;8.252;2024-03-02T08:30:47;21.10;50.20
45843;DHT22;31563;51.744;8.252;2024-03-02T08:33:15;21.50;50.00
45843;DHT22;31563;51.744;8.252;2024-03-02T08:35:43;21.80;47.30
45843;DHT22;31563;51.744;8.252;2024-03-02T08:38:12;22.10;48.00
45843;DHT22;31563;51.744;8.252;2024-03-02T08:40:42;22.50;47.70
45843;DHT22;31563;51.744;8.252;2024-03-02T08:43:10;22.70;47.30
45843;DHT22;31563;51.744;8.252;2024-03-02T08:45:39;23.10;47.10
45843;DHT22;31563;51.744;8.252;2024-03-02T08:48:08;23.40;46.70
45843;DHT22;31563;51.744;8.252;2024-03-02T08:50:36;23.70;46.40
45843;DHT22;31563;51.744;8.252;2024-03-02T08:53:06;23.80;46.00
45843;DHT22;31563;51.744;8.252;2024-03-02T08:55:34;23.40;43.40
45843;DHT22;31563;51.744;8.252;2024-03-02T08:58:04;22.70;42.40
45843;DHT22;31563;51.744;8.252;2024-03-02T09:00:32;22.20;42.40
45843;DHT22;31563;51.744;8.252;2024-03-02T09:03:01;22.00;42.30
45843;DHT22;31563;51.744;8.252;2024-03-02T09:05:29;21.90;42.20
45843;DHT22;31563;51.744;8.252;2024-03-02T09:08:00;21.80;41.70
45843;DHT22;31563;51.744;8.252;2024-03-02T09:10:33;21.70;41.70
45843;DHT22;31563;51.744;8.252;2024-03-02T09:13:01;21.70;42.20
45843;DHT22;31563;51.744;8.252;2024-03-02T09:15:31;21.60;42.30
45843;DHT22;31563;51.744;8.252;2024-03-02T09:18:05;21.70;43.00
45843;DHT22;31563;51.744;8.252;2024-03-02T09:20:36;21.80;43.20
45843;DHT22;31563;51.744;8.252;2024-03-02T09:23:05;21.90;43.40
45843;DHT22;31563;51.744;8.252;2024-03-02T09:25:33;21.90;43.60
45843;DHT22;31563;51.744;8.252;2024-03-02T09:28:04;22.00;43.80
45843;DHT22;31563;51.744;8.252;2024-03-02T09:30:38;22.00;43.90
45843;DHT22;31563;51.744;8.252;2024-03-02T09:33:06;22.10;44.10
45843;DHT22;31563;51.744;8.252;2024-03-02T09:35:37;22.10;44.30
45843;DHT22;31563;51.744;8.252;2024-03-02T09:38:05;22.10;44.70
45843;DHT22;31563;51.744;8.252;2024-03-02T09:40:36;22.20;44.70
45843;DHT22;31563;51.744;8.252;2024-03-02T09:43:04;22.20;44.70
45843;DHT22;31563;51.744;8.252;2024-03-02T09:45:32;22.10;43.10
45843;DHT22;31563;51.744;8.252;2024-03-02T09:48:03;22.10;43.80
45843;DHT22;31563;51.744;8.252;2024-03-02T09:50:31;22.10;44.10
45843;DHT22;31563;51.744;8.252;2024-03-02T09:52:59;22.20;44.40
45843;DHT22;31563;51.744;8.252;2024-03-02T09:55:27;22.20;44.40
45843;DHT22;31563;51.744;8.252;2024-03-02T09:57:55;22.30;44.60
45843;DHT22;31563;51.744;8.252;2024-03-02T10:00:24;22.40;44.90
45843;DHT22;31563;51.744;8.252;2024-03-02T10:02:52;23.50;44.10
45843;DHT22;31563;51.744;8.252;2024-03-02T10:05:26;24.40;42.50
45843;DHT22;31563;51.744;8.252;2024-03-02T10:08:02;25.10;41.60
45843;DHT22;31563;51.744;8.252;2024-03-02T10:10:37;25.70;40.60
45843;DHT22;31563;51.744;8.252;2024-03-02T10:13:08;26.20;40.20
45843;DHT22;31563;51.744;8.252;2024-03-02T10:15:37;26.60;40.10
45843;DHT22;31563;51.744;8.252;2024-03-02T10:18:09;27.00;40.00
45843;DHT22;31563;51.744;8.252;2024-03-02T10:20:40;27.40;39.60
45843;DHT22;31563;51.744;8.252;2024-03-02T10:23:10;27.90;39.50
45843;DHT22;31563;51.744;8.252;2024-03-02T10:25:39;28.20;38.70
45843;DHT22;31563;51.744;8.252;2024-03-02T10:28:20;28.70;37.70
45843;DHT22;31563;51.744;8.252;2024-03-02T10:30:48;29.00;37.10
45843;DHT22;31563;51.744;8.252;2024-03-02T10:33:18;29.70;36.80
45843;DHT22;31563;51.744;8.252;2024-03-02T10:35:49;30.00;36.40
45843;DHT22;31563;51.744;8.252;2024-03-02T10:38:17;30.30;36.40
45843;DHT22;31563;51.744;8.252;2024-03-02T10:40:47;30.80;36.20
45843;DHT22;31563;51.744;8.252;2024-03-02T10:43:15;31.30;35.80
45843;DHT22;31563;51.744;8.252;2024-03-02T10:45:46;31.50;35.30
45843;DHT22;31563;51.744;8.252;2024-03-02T10:48:15;31.60;35.20
45843;DHT22;31563;51.744;8.252;2024-03-02T10:50:43;31.60;35.10
45843;DHT22;31563;51.744;8.252;2024-03-02T10:53:13;31.60;35.40
45843;DHT22;31563;51.744;8.252;2024-03-02T10:55:41;32.00;35.40
45843;DHT22;31563;51.744;8.252;2024-03-02T10:58:12;32.20;35.00
45843;DHT22;31563;51.744;8.252;2024-03-02T11:00:44;32.40;34.90
45843;DHT22;31563;51.744;8.252;2024-03-02T11:03:14;33.10;34.50
45843;DHT22;31563;51.744;8.252;2024-03-02T11:05:43;33.90;34.60
45843;DHT22;31563;51.744;8.252;2024-03-02T11:08:13;32.30;33.50
45843;DHT22;31563;51.744;8.252;2024-03-02T11:10:48;30.70;35.50
45843;DHT22;31563;51.744;8.252;2024-03-02T11:13:22;29.60;37.10
45843;DHT22;31563;51.744;8.252;2024-03-02T11:15:52;28.70;38.00
45843;DHT22;31563;51.744;8.252;2024-03-02T11:18:23;28.20;38.70
45843;DHT22;31563;51.744;8.252;2024-03-02T11:20:52;28.00;39.10
45843;DHT22;31563;51.744;8.252;2024-03-02T11:23:22;27.80;39.30
45843;DHT22;31563;51.744;8.252;2024-03-02T11:26:16;27.70;39.70
45843;DHT22;31563;51.744;8.252;2024-03-02T11:28:44;27.10;34.70
45843;DHT22;31563;51.744;8.252;2024-03-02T11:31:13;26.70;34.60
45843;DHT22;31563;51.744;8.252;2024-03-02T11:33:41;26.50;35.30
45843;DHT22;31563;51.744;8.252;2024-03-02T11:36:10;26.40;35.20
45843;DHT22;31563;51.744;8.252;2024-03-02T11:38:43;26.20;35.10
45843;DHT22;31563;51.744;8.252;2024-03-02T11:41:12;26.10;35.00
45843;DHT22;31563;51.744;8.252;2024-03-02T11:43:42;25.90;35.10
45843;DHT22;31563;51.744;8.252;2024-03-02T11:46:11;26.00;35.30
45843;DHT22;31563;51.744;8.252;2024-03-02T11:48:40;26.20;35.50
45843;DHT22;31563;51.744;8.252;2024-03-02T11:51:08;26.20;35.50
45843;DHT22;31563;51.744;8.252;2024-03-02T11:53:40;26.10;35.10
45843;DHT22;31563;51.744;8.252;2024-03-02T11:56:09;25.80;34.70
45843;DHT22;31563;51.744;8.252;2024-03-02T11:58:39;25.80;35.60
45843;DHT22;31563;51.744;8.252;2024-03-02T12:01:08;26.00;36.10
45843;DHT22;31563;51.744;8.252;2024-03-02T12:03:38;26.20;36.90
45843;DHT22;31563;51.744;8.252;2024-03-02T12:06:07;26.40;37.70
45843;DHT22;31563;51.744;8.252;2024-03-02T12:08:36;26.50;38.00
45843;DHT22;31563;51.744;8.252;2024-03-02T12:11:06;26.70;38.60
45843;DHT22;31563;51.744;8.252;2024-03-02T12:13:35;26.70;38.70
45843;DHT22;31563;51.744;8.252;2024-03-02T12:16:04;26.60;38.70
45843;DHT22;31563;51.744;8.252;2024-03-02T12:18:32;26.60;39.00
45843;DHT22;31563;51.744;8.252;2024-03-02T12:21:00;26.50;39.20
45843;DHT22;31563;51.744;8.252;2024-03-02T12:23:30;26.40;39.40
45843;DHT22;31563;51.744;8.252;2024-03-02T12:25:58;26.60;39.40
45843;DHT22;31563;51.744;8.252;2024-03-02T12:28:28;26.60;37.20
45843;DHT22;31563;51.744;8.252;2024-03-02T12:30:58;26.50;35.20
45843;DHT22;31563;51.744;8.252;2024-03-02T12:33:26;26.30;35.00
45843;DHT22;31563;51.744;8.252;2024-03-02T12:35:56;26.30;35.20
45843;DHT22;31563;51.744;8.252;2024-03-02T12:38:25;26.20;34.50
45843;DHT22;31563;51.744;8.252;2024-03-02T12:40:54;26.20;34.30
45843;DHT22;31563;51.744;8.252;2024-03-02T12:43:22;26.20;34.10
45843;DHT22;31563;51.744;8.252;2024-03-02T12:45:53;26.30;34.40
45843;DHT22;31563;51.744;8.252;2024-03-02T12:48:23;26.30;34.60
45843;DHT22;31563;51.744;8.252;2024-03-02T12:50:51;26.40;34.50
45843;DHT22;31563;51.744;8.252;2024-03-02T12:53:21;26.40;34.30
45843;DHT22;31563;51.744;8.252;2024-03-02T12:55:49;26.30;34.20
45843;DHT22;31563;51.744;8.252;2024-03-02T12:58:19;26.20;33.90
45843;DHT22;31563;51.744;8.252;2024-03-02T13:00:48;26.20;34.20
45843;DHT22;31563;51.744;8.252;2024-03-02T13:03:19;26.20;34.70
45843;DHT22;31563;51.744;8.252;2024-03-02T13:05:49;26.40;35.60
45843;DHT22;31563;51.744;8.252;2024-03-02T13:08:18;26.50;36.30
45843;DHT22;31563;51.744;8.252;2024-03-02T13:10:46;26.60;35.40
45843;DHT22;31563;51.744;8.252;2024-03-02T13:13:14;26.50;35.10
45843;DHT22;31563;51.744;8.252;2024-03-02T13:15:42;26.60;35.10
45843;DHT22;31563;51.744;8.252;2024-03-02T13:18:11;27.10;34.00
45843;DHT22;31563;51.744;8.252;2024-03-02T13:20:41;27.50;33.40
45843;DHT22;31563;51.744;8.252;2024-03-02T13:23:09;27.90;33.10
45843;DHT22;31563;51.744;8.252;2024-03-02T13:25:37;28.10;32.80
45843;DHT22;31563;51.744;8.252;2024-03-02T13:28:06;28.20;32.80
45843;DHT22;31563;51.744;8.252;2024-03-02T13:30:34;28.20;32.90
45843;DHT22;31563;51.744;8.252;2024-03-02T13:33:02;28.30;32.80
45843;DHT22;31563;51.744;8.252;2024-03-02T13:35:31;28.50;32.50
45843;DHT22;31563;51.744;8.252;2024-03-02T13:38:00;28.70;32.30
45843;DHT22;31563;51.744;8.252;2024-03-02T13:40:28;29.00;31.70
45843;DHT22;31563;51.744;8.252;2024-03-02T13:43:02;29.20;31.30
45843;DHT22;31563;51.744;8.252;2024-03-02T13:45:30;29.40;31.20
45843;DHT22;31563;51.744;8.252;2024-03-02T13:48:00;30.30;30.00
45843;DHT22;31563;51.744;8.252;2024-03-02T13:50:28;30.90;29.50
45843;DHT22;31563;51.744;8.252;2024-03-02T13:52:57;31.70;28.70
45843;DHT22;31563;51.744;8.252;2024-03-02T13:55:26;32.50;28.50
45843;DHT22;31563;51.744;8.252;2024-03-02T13:57:54;32.90;27.90
45843;DHT22;31563;51.744;8.252;2024-03-02T14:00:22;33.10;27.60
45843;DHT22;31563;51.744;8.252;2024-03-02T14:02:50;33.60;27.30
45843;DHT22;31563;51.744;8.252;2024-03-02T14:05:19;33.40;27.80
45843;DHT22;31563;51.744;8.252;2024-03-02T14:07:47;32.90;27.70
45843;DHT22;31563;51.744;8.252;2024-03-02T14:10:15;32.30;28.20
45843;DHT22;31563;51.744;8.252;2024-03-02T14:12:46;30.90;29.40
45843;DHT22;31563;51.744;8.252;2024-03-02T14:15:14;30.90;29.70
45843;DHT22;31563;51.744;8.252;2024-03-02T14:17:45;30.70;30.70
45843;DHT22;31563;51.744;8.252;2024-03-02T14:20:13;30.10;30.80
45843;DHT22;31563;51.744;8.252;2024-03-02T14:22:47;29.30;31.60
45843;DHT22;31563;51.744;8.252;2024-03-02T14:25:16;29.50;32.60
45843;DHT22;31563;51.744;8.252;2024-03-02T14:27:46;30.40;31.80
45843;DHT22;31563;51.744;8.252;2024-03-02T14:30:34;31.20;31.50
45843;DHT22;31563;51.744;8.252;2024-03-02T14:33:04;32.30;30.70
45843;DHT22;31563;51.744;8.252;2024-03-02T14:35:33;32.30;31.30
45843;DHT22;31563;51.744;8.252;2024-03-02T14:38:01;33.60;29.90
45843;DHT22;31563;51.744;8.252;2024-03-02T14:40:29;34.90;29.40
45843;DHT22;31563;51.744;8.252;2024-03-02T14:42:59;35.10;28.80
45843;DHT22;31563;51.744;8.252;2024-03-02T14:45:27;34.60;29.30
45843;DHT22;31563;51.744;8.252;2024-03-02T14:47:56;34.60;29.30
45843;DHT22;31563;51.744;8.252;2024-03-02T14:50:26;34.10;29.60
45843;DHT22;31563;51.744;8.252;2024-03-02T14:52:54;33.60;30.30
45843;DHT22;31563;51.744;8.252;2024-03-02T14:55:24;33.80;30.40
45843;DHT22;31563;51.744;8.252;2024-03-02T14:57:52;33.30;30.50
45843;DHT22;31563;51.744;8.252;2024-03-02T15:00:22;32.90;32.00
45843;DHT22;31563;51.744;8.252;2024-03-02T15:02:50;32.60;31.30
45843;DHT22;31563;51.744;8.252;2024-03-02T15:05:18;32.90;31.50
45843;DHT22;31563;51.744;8.252;2024-03-02T15:07:46;32.50;31.70
45843;DHT22;31563;51.744;8.252;2024-03-02T15:10:14;32.50;32.60
45843;DHT22;31563;51.744;8.252;2024-03-02T15:12:42;32.50;31.80
45843;DHT22;31563;51.744;8.252;2024-03-02T15:15:11;32.50;32.10
45843;DHT22;31563;51.744;8.252;2024-03-02T15:17:40;32.70;32.00
45843;DHT22;31563;51.744;8.252;2024-03-02T15:20:09;32.50;32.20
45843;DHT22;31563;51.744;8.252;2024-03-02T15:22:37;32.20;32.50
45843;DHT22;31563;51.744;8.252;2024-03-02T15:25:05;31.80;32.90
45843;DHT22;31563;51.744;8.252;2024-03-02T15:27:34;31.30;33.40
45843;DHT22;31563;51.744;8.252;2024-03-02T15:30:02;30.90;33.90
45843;DHT22;31563;51.744;8.252;2024-03-02T15:32:30;30.70;34.50
45843;DHT22;31563;51.744;8.252;2024-03-02T15:34:59;30.20;34.80
45843;DHT22;31563;51.744;8.252;2024-03-02T15:37:28;29.80;35.40
45843;DHT22;31563;51.744;8.252;2024-03-02T15:39:56;29.30;35.90
45843;DHT22;31563;51.744;8.252;2024-03-02T15:42:25;28.90;36.50